Time;durP1;ratioP1;P1;durP2;ratioP2;P2;SDS_P1;SDS_P2;PMS_P1;PMS_P2;Temp;Humidity;BMP_temperature;BMP_pressure;BME280_temperature;BME280_humidity;BME280_pressure;Samples;Min_cycle;Max_cycle;Signal;HPM_P1;HPM_P2
2022/10/25 00:01:51;;;;;;;2.30;0.73;;;;;;;16.88;61.91;100838.19;4904700;28;97739;-46
2022/10/25 00:04:16;;;;;;;4.40;0.83;;;;;;;16.92;61.89;100830.28;4907387;28;97848;-46
2022/10/25 00:06:42;;;;;;;2.23;0.73;;;;;;;16.96;61.94;100839.06;4903719;28;96741;-46
2022/10/25 00:09:08;;;;;;;5.70;1.27;;;;;;;16.97;61.99;100832.94;4901710;28;97330;-46
2022/10/25 00:11:34;;;;;;;2.20;1.10;;;;;;;16.99;61.94;100841.50;4903157;28;97521;-46
2022/10/25 00:14:03;;;;;;;11.67;1.10;;;;;;;17.02;61.98;100829.34;4904405;28;96855;-47
2022/10/25 00:16:31;;;;;;;8.20;1.13;;;;;;;17.04;61.92;100839.91;4903778;28;96781;-47
2022/10/25 00:18:57;;;;;;;4.10;0.80;;;;;;;17.06;61.95;100843.66;4904408;28;97435;-46
2022/10/25 00:21:23;;;;;;;2.30;0.67;;;;;;;17.06;61.89;100842.91;4905531;28;98652;-46
2022/10/25 00:23:49;;;;;;;5.90;0.93;;;;;;;17.08;61.99;100840.38;4902476;28;98323;-46
2022/10/25 00:26:15;;;;;;;2.30;0.80;;;;;;;17.10;62.04;100837.81;4902714;28;97071;-47
2022/10/25 00:28:40;;;;;;;4.83;0.70;;;;;;;17.12;62.02;100835.25;4905655;28;97462;-46
2022/10/25 00:31:12;;;;;;;2.20;0.93;;;;;;;17.13;62.17;100837.47;4906006;28;97094;-45
2022/10/25 00:33:38;;;;;;;1.60;0.93;;;;;;;17.13;61.90;100842.28;4900297;28;101991;-46
2022/10/25 00:36:06;;;;;;;0.80;0.70;;;;;;;17.13;62.07;100848.59;4902107;28;97633;-46
2022/10/25 00:38:32;;;;;;;2.50;0.60;;;;;;;17.10;62.20;100849.66;4901541;28;97248;-46
2022/10/25 00:40:57;;;;;;;2.93;0.70;;;;;;;17.12;62.14;100857.47;4902299;28;97574;-46
2022/10/25 00:43:39;;;;;;;4.10;0.70;;;;;;;17.16;62.27;100849.56;4903162;28;97160;-47
2022/10/25 00:46:17;;;;;;;1.63;0.60;;;;;;;17.16;62.18;100858.66;4906201;28;97071;-46
2022/10/25 00:49:00;;;;;;;1.87;0.83;;;;;;;17.19;62.05;100854.03;4904313;28;96812;-46
2022/10/25 00:51:54;;;;;;;4.33;0.70;;;;;;;17.20;62.38;100861.13;4906341;28;101962;-46
2022/10/25 00:54:23;;;;;;;3.67;0.83;;;;;;;17.23;61.92;100857.28;4901795;28;101481;-46
2022/10/25 00:56:50;;;;;;;1.97;0.67;;;;;;;17.24;61.94;100862.28;4902359;28;97371;-46
2022/10/25 00:59:22;;;;;;;3.37;0.70;;;;;;;17.25;62.12;100868.63;4903932;28;96979;-46
2022/10/25 01:01:48;;;;;;;1.70;1.00;;;;;;;17.26;61.96;100872.88;4901136;28;98010;-46
2022/10/25 01:04:16;;;;;;;3.90;0.77;;;;;;;17.27;62.05;100868.06;4900723;28;97613;-46
2022/10/25 01:06:46;;;;;;;2.73;0.50;;;;;;;17.27;61.84;100862.50;4904832;28;97117;-47
2022/10/25 01:09:17;;;;;;;1.13;0.70;;;;;;;17.24;61.94;100875.44;4902365;28;96691;-46
2022/10/25 01:11:43;;;;;;;1.80;0.60;;;;;;;17.23;62.09;100869.13;4899895;28;101621;-46
2022/10/25 01:14:11;;;;;;;8.33;0.90;;;;;;;17.23;62.09;100871.91;4904915;28;97936;-46
2022/10/25 01:16:58;;;;;;;2.70;0.70;;;;;;;17.25;62.32;100876.97;4904381;28;97283;-46
2022/10/25 01:19:54;;;;;;;1.13;0.83;;;;;;;17.26;62.39;100878.44;4904936;28;97077;-46
2022/10/25 01:22:25;;;;;;;1.63;0.90;;;;;;;17.27;62.05;100870.84;4903975;28;100616;-46
2022/10/25 01:25:12;;;;;;;3.00;0.87;;;;;;;17.27;62.01;100874.38;4902858;28;101650;-46
2022/10/25 01:27:52;;;;;;;1.00;0.50;;;;;;;17.24;62.11;100873.41;4901700;28;96927;-46
2022/10/25 01:30:19;;;;;;;1.57;0.80;;;;;;;17.21;62.01;100868.91;4902945;28;97254;-46
2022/10/25 01:32:56;;;;;;;4.03;0.93;;;;;;;17.24;62.16;100872.66;4903029;28;96900;-46
2022/10/25 01:35:45;;;;;;;1.17;1.07;;;;;;;17.21;62.38;100871.69;4902548;28;98200;-46
2022/10/25 01:38:34;;;;;;;3.67;0.93;;;;;;;17.20;62.23;100873.00;4900077;28;96919;-46
2022/10/25 01:41:13;;;;;;;2.30;0.70;;;;;;;17.17;62.20;100876.81;4903703;28;97344;-46
2022/10/25 01:43:47;;;;;;;3.10;0.70;;;;;;;17.18;62.22;100875.56;4904729;28;102613;-46
2022/10/25 01:46:26;;;;;;;3.83;1.00;;;;;;;17.18;62.57;100883.16;4903514;28;101855;-46
2022/10/25 01:49:00;;;;;;;6.50;0.80;;;;;;;17.19;62.16;100882.59;4900923;28;101101;-46
2022/10/25 01:51:27;;;;;;;1.13;0.60;;;;;;;17.21;62.05;100882.09;4905330;28;97357;-46
2022/10/25 01:53:53;;;;;;;0.63;0.63;;;;;;;17.21;62.14;100879.31;4906970;28;97139;-46
2022/10/25 01:56:33;;;;;;;1.07;0.47;;;;;;;17.22;62.16;100884.31;4905881;28;97317;-46
2022/10/25 01:59:54;;;;;;;2.20;1.00;;;;;;;17.18;62.46;100880.38;4904520;28;96686;-46
2022/10/25 02:02:27;;;;;;;2.63;0.60;;;;;;;17.20;62.07;100889.69;4880082;28;97516;-46
2022/10/25 02:05:06;;;;;;;5.20;1.17;;;;;;;17.23;62.18;100882.31;4883018;28;96999;-46
2022/10/25 02:07:42;;;;;;;9.30;1.60;;;;;;;17.22;62.14;100889.88;4894424;28;101159;-46
2022/10/25 02:10:32;;;;;;;4.63;0.90;;;;;;;17.23;62.28;100879.53;4905802;28;97274;-47
2022/10/25 02:13:03;;;;;;;3.47;0.73;;;;;;;17.25;62.06;100876.97;4905127;28;101766;-47
2022/10/25 02:15:39;;;;;;;4.10;0.93;;;;;;;17.23;62.05;100876.75;4906350;28;98092;-46
2022/10/25 02:18:11;;;;;;;6.67;0.97;;;;;;;17.24;62.07;100881.75;4906063;28;98641;-47
2022/10/25 02:20:36;;;;;;;4.30;1.10;;;;;;;17.21;62.04;100871.69;4904757;28;97276;-46
2022/10/25 02:23:04;;;;;;;2.40;1.10;;;;;;;17.20;62.05;100875.00;4907306;28;97179;-46
2022/10/25 02:25:36;;;;;;;3.43;0.90;;;;;;;17.22;62.14;100884.31;4904095;28;98509;-47
2022/10/25 02:28:05;;;;;;;2.10;0.80;;;;;;;17.21;62.13;100882.81;4904664;28;97260;-46
2022/10/25 02:30:33;;;;;;;3.40;1.00;;;;;;;17.25;62.06;100893.63;4907700;28;97027;-46
2022/10/25 02:33:00;;;;;;;6.67;1.17;;;;;;;17.24;62.09;100890.09;4903696;28;97188;-47
2022/10/25 02:35:25;;;;;;;4.43;1.10;;;;;;;17.22;62.32;100881.53;4904834;28;98155;-46
2022/10/25 02:37:50;;;;;;;6.07;0.80;;;;;;;17.22;62.14;100883.56;4905280;28;97004;-46
2022/10/25 02:40:16;;;;;;;1.80;0.73;;;;;;;17.25;62.18;100888.06;4904507;28;99431;-46
2022/10/25 02:42:41;;;;;;;6.50;1.03;;;;;;;17.27;62.21;100891.06;4904348;28;96867;-46
2022/10/25 02:45:07;;;;;;;1.00;0.60;;;;;;;17.29;62.05;100894.06;4902413;28;103455;-46
2022/10/25 02:47:33;;;;;;;5.07;1.30;;;;;;;17.29;62.22;100890.53;4903505;28;102780;-46
2022/10/25 02:49:58;;;;;;;2.07;1.20;;;;;;;17.28;62.12;100895.34;4902920;28;108160;-46
2022/10/25 02:52:23;;;;;;;1.77;0.80;;;;;;;17.25;62.27;100886.03;4906313;28;97476;-46
2022/10/25 02:54:48;;;;;;;2.20;1.10;;;;;;;17.28;62.25;100886.28;4903480;28;97900;-47
2022/10/25 02:57:14;;;;;;;1.87;1.10;;;;;;;17.30;62.41;100890.00;4904547;28;116615;-46
2022/10/25 02:59:39;;;;;;;5.00;1.33;;;;;;;17.32;62.46;100892.25;4904318;28;106640;-47
2022/10/25 03:02:04;;;;;;;2.37;1.10;;;;;;;17.32;62.21;100892.97;4902501;28;110952;-47
2022/10/25 03:04:30;;;;;;;3.57;1.00;;;;;;;17.33;62.15;100888.19;4904465;28;96967;-47
2022/10/25 03:06:56;;;;;;;1.50;1.27;;;;;;;17.32;62.36;100900.59;4906386;28;97420;-47
2022/10/25 03:09:21;;;;;;;1.70;1.17;;;;;;;17.33;62.21;100894.50;4903876;28;97294;-47
2022/10/25 03:11:47;;;;;;;1.93;1.13;;;;;;;17.32;62.20;100895.75;4903681;28;97775;-46
2022/10/25 03:14:12;;;;;;;2.13;1.20;;;;;;;17.33;62.28;100894.50;4907807;28;96650;-46
2022/10/25 03:16:38;;;;;;;5.87;1.30;;;;;;;17.33;62.20;100899.31;4904245;28;96991;-47
2022/10/25 03:19:03;;;;;;;2.40;1.07;;;;;;;17.32;62.33;100903.38;4906606;28;97475;-46
2022/10/25 03:21:28;;;;;;;2.00;0.83;;;;;;;17.33;62.26;100907.66;4904948;28;97341;-47
2022/10/25 03:23:54;;;;;;;1.33;1.17;;;;;;;17.33;62.19;100904.88;4904883;28;97959;-47
2022/10/25 03:26:19;;;;;;;2.00;0.80;;;;;;;17.31;62.38;100902.63;4905879;28;97166;-47
2022/10/25 03:28:44;;;;;;;5.20;1.00;;;;;;;17.31;62.29;100908.19;4904790;28;97135;-47
2022/10/25 03:31:15;;;;;;;10.33;1.40;;;;;;;17.33;62.47;100913.97;4901166;28;105197;-47
2022/10/25 03:33:41;;;;;;;5.17;1.03;;;;;;;17.33;62.31;100919.53;4903654;28;97115;-47
2022/10/25 03:36:07;;;;;;;1.20;0.87;;;;;;;17.34;62.23;100912.69;4903728;28;97496;-47
2022/10/25 03:38:32;;;;;;;3.13;1.07;;;;;;;17.35;62.29;100908.63;4906982;28;97175;-47
2022/10/25 03:40:58;;;;;;;8.40;1.10;;;;;;;17.33;62.27;100919.53;4901271;28;97159;-46
2022/10/25 03:43:23;;;;;;;1.90;1.20;;;;;;;17.33;62.28;100916.75;4904992;28;111503;-47
2022/10/25 03:45:49;;;;;;;5.23;0.93;;;;;;;17.33;62.34;100919.53;4903632;28;102184;-46
2022/10/25 03:48:14;;;;;;;4.60;1.80;;;;;;;17.35;62.37;100921.78;4897345;28;96743;-46
2022/10/25 03:50:39;;;;;;;2.90;1.33;;;;;;;17.37;62.50;100933.88;4902346;28;101554;-45
2022/10/25 03:53:06;;;;;;;6.93;1.47;;;;;;;17.39;62.18;100928.53;4904399;28;98677;-46
2022/10/25 03:55:40;;;;;;;3.07;1.63;;;;;;;17.42;62.37;100929.47;4902535;28;97257;-47
2022/10/25 03:58:05;;;;;;;1.27;1.13;;;;;;;17.40;62.35;100924.47;4902373;28;97853;-47
2022/10/25 04:00:31;;;;;;;3.77;1.47;;;;;;;17.41;62.28;100936.34;4903727;28;97042;-47
2022/10/25 04:02:59;;;;;;;5.43;1.33;;;;;;;17.39;62.30;100936.84;4902236;28;98462;-48
2022/10/25 04:05:25;;;;;;;2.90;1.17;;;;;;;17.40;62.38;100938.38;4902957;28;96770;-45
2022/10/25 04:07:50;;;;;;;1.50;0.97;;;;;;;17.42;62.45;100935.81;4898396;28;97645;-45
2022/10/25 04:10:18;;;;;;;2.27;1.90;;;;;;;17.42;62.47;100938.59;4907376;28;97205;-47
2022/10/25 04:12:44;;;;;;;6.87;1.83;;;;;;;17.44;62.56;100943.59;4901527;28;97526;-45
2022/10/25 04:15:10;;;;;;;2.63;1.33;;;;;;;17.47;62.38;100945.34;4903722;28;97161;-47
2022/10/25 04:17:35;;;;;;;3.00;1.37;;;;;;;17.47;62.53;100943.31;4899178;28;96760;-47
2022/10/25 04:20:00;;;;;;;3.80;1.70;;;;;;;17.46;62.53;100950.13;4906213;28;98026;-46
2022/10/25 04:22:26;;;;;;;5.23;1.60;;;;;;;17.42;62.53;100938.59;4902085;28;113822;-47
2022/10/25 04:24:51;;;;;;;3.63;1.57;;;;;;;17.46;62.61;100946.59;4903210;28;107065;-47
2022/10/25 04:27:16;;;;;;;5.03;1.83;;;;;;;17.46;62.55;100944.56;4901904;28;97079;-47
2022/10/25 04:29:41;;;;;;;3.23;1.70;;;;;;;17.46;62.65;100952.16;4904177;28;97017;-47
2022/10/25 04:32:07;;;;;;;4.73;1.87;;;;;;;17.45;62.61;100945.84;4903609;28;97385;-46
2022/10/25 04:34:32;;;;;;;2.30;2.10;;;;;;;17.45;62.66;100956.25;4904644;28;98509;-47
2022/10/25 04:36:57;;;;;;;3.60;1.67;;;;;;;17.46;62.72;100952.94;4905375;28;104773;-47
2022/10/25 04:39:24;;;;;;;2.70;1.50;;;;;;;17.47;62.81;100954.44;4904189;28;97273;-45
2022/10/25 04:41:50;;;;;;;3.33;1.70;;;;;;;17.47;62.71;100953.69;4902253;28;96963;-48
2022/10/25 04:44:15;;;;;;;1.90;1.80;;;;;;;17.46;62.98;100950.13;4902413;28;97301;-46
2022/10/25 04:46:40;;;;;;;4.20;2.23;;;;;;;17.45;62.80;100948.63;4904770;28;97155;-47
2022/10/25 04:49:06;;;;;;;7.80;2.50;;;;;;;17.44;62.96;100952.72;4903178;28;112911;-47
2022/10/25 04:51:31;;;;;;;3.17;1.90;;;;;;;17.46;62.82;100952.16;4900252;28;113472;-48
2022/10/25 04:53:56;;;;;;;2.20;2.10;;;;;;;17.47;62.73;100948.88;4905441;28;97697;-47
2022/10/25 04:56:22;;;;;;;8.03;2.50;;;;;;;17.48;62.68;100957.94;4902443;28;97154;-46
2022/10/25 04:58:47;;;;;;;4.37;2.00;;;;;;;17.48;62.79;100953.13;4900023;28;96934;-47
2022/10/25 05:01:15;;;;;;;8.77;1.80;;;;;;;17.50;62.81;100958.94;4903112;28;97121;-47
2022/10/25 05:03:41;;;;;;;11.90;2.80;;;;;;;17.49;62.80;100965.03;4903908;28;97867;-47
2022/10/25 05:06:10;;;;;;;6.30;2.57;;;;;;;17.51;62.79;100959.69;4905269;28;96886;-45
2022/10/25 05:08:38;;;;;;;5.83;2.77;;;;;;;17.52;62.89;100967.50;4904519;28;97179;-47
2022/10/25 05:11:04;;;;;;;9.97;2.23;;;;;;;17.50;62.98;100961.72;4902440;28;97498;-45
2022/10/25 05:13:31;;;;;;;3.77;2.20;;;;;;;17.54;62.99;100969.78;4901331;28;97370;-47
2022/10/25 05:15:57;;;;;;;4.50;2.57;;;;;;;17.53;62.89;100966.25;4904056;28;96937;-46
2022/10/25 05:18:23;;;;;;;7.83;2.13;;;;;;;17.54;62.78;100970.50;4904009;28;97275;-47
2022/10/25 05:20:53;;;;;;;3.50;2.00;;;;;;;17.57;62.83;100963.88;4901608;28;96999;-47
2022/10/25 05:23:20;;;;;;;4.30;1.90;;;;;;;17.57;62.86;100969.44;4901303;28;101612;-47
2022/10/25 05:25:45;;;;;;;6.63;2.20;;;;;;;17.54;62.91;100967.72;4901669;28;96994;-47
2022/10/25 05:28:10;;;;;;;2.30;2.10;;;;;;;17.55;63.10;100985.16;4904877;28;96958;-47
2022/10/25 05:30:40;;;;;;;2.20;1.87;;;;;;;17.51;62.81;100974.38;4903244;28;111696;-46
2022/10/25 05:33:06;;;;;;;4.80;2.30;;;;;;;17.50;62.93;100975.63;4903835;28;98433;-46
2022/10/25 05:35:31;;;;;;;8.80;1.90;;;;;;;17.52;63.00;100981.41;4903164;28;97018;-48
2022/10/25 05:37:57;;;;;;;5.33;2.53;;;;;;;17.52;62.96;100970.28;4903363;28;97001;-47
2022/10/25 05:40:22;;;;;;;6.50;2.30;;;;;;;17.54;62.95;100989.97;4903519;28;107820;-47
2022/10/25 05:42:47;;;;;;;3.17;2.07;;;;;;;17.56;63.03;100979.06;4904986;28;105558;-47
2022/10/25 05:45:12;;;;;;;6.00;2.80;;;;;;;17.55;62.55;100972.00;4901271;28;107869;-46
2022/10/25 05:47:38;;;;;;;3.43;2.43;;;;;;;17.57;62.89;100991.72;4901579;28;112178;-47
2022/10/25 05:50:03;;;;;;;7.80;2.13;;;;;;;17.58;62.85;100979.28;4905494;28;112270;-47
2022/10/25 05:52:29;;;;;;;6.83;2.30;;;;;;;17.58;62.91;100993.19;4903903;28;102276;-47
2022/10/25 05:54:54;;;;;;;4.23;1.97;;;;;;;17.57;62.89;100994.50;4900930;28;105136;-47
2022/10/25 05:57:19;;;;;;;3.70;2.30;;;;;;;17.56;62.79;100998.53;4900477;28;111047;-46
2022/10/25 05:59:44;;;;;;;5.13;1.80;;;;;;;17.58;62.85;100995.25;4899958;28;96888;-47
2022/10/25 06:02:10;;;;;;;2.30;2.10;;;;;;;17.60;62.89;101012.16;4899908;28;115270;-47
2022/10/25 06:04:36;;;;;;;2.40;2.20;;;;;;;17.61;62.96;101003.28;4906008;28;97273;-47
2022/10/25 06:07:01;;;;;;;3.63;1.80;;;;;;;17.62;62.88;101007.56;4903631;28;99170;-46
2022/10/25 06:09:26;;;;;;;5.90;2.23;;;;;;;17.63;62.65;101009.06;4901837;28;97158;-46
2022/10/25 06:11:52;;;;;;;2.90;2.00;;;;;;;17.64;62.72;101018.16;4903898;28;97016;-47
2022/10/25 06:14:17;;;;;;;2.03;1.93;;;;;;;17.66;62.99;101035.06;4903986;28;96882;-47
2022/10/25 06:16:42;;;;;;;5.90;1.73;;;;;;;17.69;62.61;101026.38;4903895;28;96993;-47
2022/10/25 06:19:08;;;;;;;4.30;2.27;;;;;;;17.68;62.76;101026.94;4900495;28;113361;-47
2022/10/25 06:21:33;;;;;;;4.80;2.73;;;;;;;17.67;62.68;101028.22;4901029;28;98308;-47
2022/10/25 06:23:58;;;;;;;6.23;2.40;;;;;;;17.67;62.66;101034.53;4900245;28;97413;-47
2022/10/25 06:26:27;;;;;;;1.97;1.83;;;;;;;17.67;62.81;101033.78;4901851;28;97181;-47
2022/10/25 06:29:00;;;;;;;3.43;2.20;;;;;;;17.65;62.74;101036.34;4900785;28;98803;-48
2022/10/25 06:31:27;;;;;;;2.10;1.90;;;;;;;17.64;62.78;101034.84;4900296;28;98569;-47
2022/10/25 06:33:52;;;;;;;4.07;1.90;;;;;;;17.64;62.74;101041.16;4903640;28;97152;-47
2022/10/25 06:36:20;;;;;;;2.40;2.07;;;;;;;17.62;62.77;101042.97;4904990;28;96871;-46
2022/10/25 06:38:46;;;;;;;4.33;2.37;;;;;;;17.60;62.97;101051.09;4906919;28;99768;-47
2022/10/25 06:41:14;;;;;;;2.67;1.90;;;;;;;17.60;63.08;101049.09;4905835;28;97302;-46
2022/10/25 06:43:40;;;;;;;4.37;2.00;;;;;;;17.60;63.07;101051.09;4904865;28;97357;-46
2022/10/25 06:46:24;;;;;;;2.20;1.60;;;;;;;17.60;62.97;101062.25;4907874;28;97073;-47
2022/10/25 06:48:51;;;;;;;3.27;2.00;;;;;;;17.61;62.90;101056.13;4902336;28;100588;-47
2022/10/25 06:51:17;;;;;;;3.60;1.97;;;;;;;17.63;62.81;101061.91;4906175;28;97303;-47
2022/10/25 06:53:42;;;;;;;4.33;2.50;;;;;;;17.66;62.80;101063.66;4904558;28;97169;-46
2022/10/25 06:56:10;;;;;;;3.80;1.93;;;;;;;17.66;62.99;101071.25;4905546;28;97479;-47
2022/10/25 06:58:35;;;;;;;1.90;1.67;;;;;;;17.65;62.98;101076.03;4900274;28;97509;-45
2022/10/25 07:01:12;;;;;;;3.33;2.00;;;;;;;17.67;62.88;101069.97;4903215;28;97490;-47
2022/10/25 07:03:38;;;;;;;2.80;1.90;;;;;;;17.70;62.98;101085.59;4905579;28;97331;-47
2022/10/25 07:06:15;;;;;;;6.00;1.70;;;;;;;17.68;63.02;101085.38;4904859;28;97321;-46
2022/10/25 07:08:42;;;;;;;2.60;2.03;;;;;;;17.67;62.97;101084.63;4906010;28;97297;-47
2022/10/25 07:11:13;;;;;;;5.93;2.13;;;;;;;17.67;63.01;101079.03;4906302;28;98625;-47
2022/10/25 07:13:38;;;;;;;5.97;1.77;;;;;;;17.67;63.04;101083.88;4905195;28;96795;-47
2022/10/25 07:16:05;;;;;;;2.27;1.90;;;;;;;17.67;63.03;101084.63;4903986;28;96796;-49
2022/10/25 07:18:31;;;;;;;3.70;2.30;;;;;;;17.69;62.97;101090.41;4901046;28;98942;-47
2022/10/25 07:21:01;;;;;;;4.20;1.97;;;;;;;17.74;62.93;101089.56;4904574;28;98428;-47
2022/10/25 07:23:28;;;;;;;6.30;2.00;;;;;;;17.76;62.91;101086.25;4904544;28;96954;-47
2022/10/25 07:25:53;;;;;;;4.17;1.70;;;;;;;17.77;62.92;101093.31;4896896;28;96971;-48
2022/10/25 07:28:18;;;;;;;3.50;1.90;;;;;;;17.76;62.83;101089.03;4903744;28;97425;-45
2022/10/25 07:30:45;;;;;;;6.47;2.13;;;;;;;17.76;62.94;101092.56;4905531;28;97515;-47
2022/10/25 07:33:12;;;;;;;4.23;1.90;;;;;;;17.76;62.88;101103.69;4906307;28;97263;-46
2022/10/25 07:35:37;;;;;;;5.97;1.80;;;;;;;17.76;63.02;101095.34;4901751;28;97180;-47
2022/10/25 07:38:03;;;;;;;4.87;2.17;;;;;;;17.76;62.97;101103.69;4905853;28;103290;-47
2022/10/25 07:40:28;;;;;;;7.40;2.10;;;;;;;17.74;63.04;101117.41;4904280;28;97181;-47
2022/10/25 07:42:53;;;;;;;6.50;2.03;;;;;;;17.80;62.96;101120.09;4906930;28;114638;-47
2022/10/25 07:45:19;;;;;;;6.60;1.73;;;;;;;17.86;62.83;101117.97;4901884;28;111910;-46
2022/10/25 07:47:44;;;;;;;2.87;1.93;;;;;;;17.90;62.91;101123.97;4902407;28;96967;-46
2022/10/25 07:50:09;;;;;;;3.83;1.77;;;;;;;17.93;62.91;101129.22;4905014;28;97083;-46
2022/10/25 07:52:35;;;;;;;5.20;1.63;;;;;;;17.95;62.92;101134.28;4903476;28;97186;-53
2022/10/25 07:55:00;;;;;;;3.37;1.70;;;;;;;17.93;62.90;101136.84;4906346;28;100818;-47
2022/10/25 07:57:25;;;;;;;11.63;2.07;;;;;;;17.93;62.79;101139.63;4900948;28;114784;-47
2022/10/25 07:59:50;;;;;;;6.93;2.50;;;;;;;17.92;62.92;101141.66;4901789;28;110571;-47
2022/10/25 08:02:16;;;;;;;3.83;2.03;;;;;;;17.90;62.84;101135.88;4903004;28;112065;-47
2022/10/25 08:04:42;;;;;;;6.73;2.17;;;;;;;17.95;62.80;101145.41;4903490;28;97221;-47
2022/10/25 08:07:07;;;;;;;2.80;1.53;;;;;;;17.98;62.86;101147.88;4904042;28;97172;-46
2022/10/25 08:09:32;;;;;;;9.47;2.40;;;;;;;17.99;62.67;101154.19;4905547;28;107668;-46
2022/10/25 08:11:58;;;;;;;2.20;1.70;;;;;;;18.01;62.76;101157.19;4901663;28;97075;-47
2022/10/25 08:14:23;;;;;;;7.67;2.60;;;;;;;18.03;62.79;101165.75;4908338;28;97423;-53
2022/10/25 08:16:48;;;;;;;2.67;2.13;;;;;;;18.03;62.67;101157.41;4903608;28;97364;-47
2022/10/25 08:19:14;;;;;;;5.67;2.00;;;;;;;18.03;62.72;101165.00;4907041;28;112277;-47
2022/10/25 08:21:39;;;;;;;6.30;2.03;;;;;;;18.07;63.00;101168.22;4901954;28;98530;-46
2022/10/25 08:24:05;;;;;;;7.93;1.90;;;;;;;18.12;62.67;101170.16;4903949;28;114710;-47
2022/10/25 08:26:30;;;;;;;7.27;1.80;;;;;;;18.15;62.70;101163.56;4901646;28;97563;-47
2022/10/25 08:28:55;;;;;;;2.47;1.90;;;;;;;18.16;62.64;101171.38;4904001;28;106736;-46
2022/10/25 08:31:21;;;;;;;3.90;1.77;;;;;;;18.19;62.24;101172.34;4897209;28;112178;-45
2022/10/25 08:33:46;;;;;;;4.00;2.10;;;;;;;18.20;62.74;101176.59;4905296;28;97369;-47
2022/10/25 08:36:12;;;;;;;4.33;1.80;;;;;;;18.24;62.61;101169.44;4903521;28;97361;-46
2022/10/25 08:38:37;;;;;;;5.53;2.00;;;;;;;18.23;62.61;101167.97;4901293;28;98281;-46
2022/10/25 08:41:20;;;;;;;6.57;1.80;;;;;;;18.32;62.45;101175.16;4900054;28;110449;-46
2022/10/25 08:43:59;;;;;;;2.83;1.23;;;;;;;18.43;62.22;101180.53;4904209;28;97084;-46
2022/10/25 08:46:39;;;;;;;3.83;1.73;;;;;;;18.49;62.09;101183.97;4902915;28;101908;-47
2022/10/25 08:49:18;;;;;;;4.80;2.10;;;;;;;18.52;62.34;101186.44;4903745;28;97215;-47
2022/10/25 08:51:47;;;;;;;2.00;1.37;;;;;;;18.57;62.19;101187.63;4902731;28;97219;-46
2022/10/25 08:54:27;;;;;;;2.50;1.77;;;;;;;18.60;61.81;101192.13;4902134;28;97933;-46
2022/10/25 08:57:18;;;;;;;4.30;1.90;;;;;;;18.59;62.04;101196.94;4904132;28;97943;-46
2022/10/25 08:59:48;;;;;;;5.17;1.50;;;;;;;18.63;62.04;101191.81;4900955;28;100028;-46
2022/10/25 09:02:32;;;;;;;6.27;1.93;;;;;;;18.61;61.70;101205.53;4898173;28;97465;-46
2022/10/25 09:04:58;;;;;;;3.53;2.33;;;;;;;18.63;62.09;101205.00;4906641;28;97101;-46
2022/10/25 09:07:55;;;;;;;5.17;1.70;;;;;;;18.63;61.71;101205.00;4902244;28;97154;-46
2022/10/25 09:10:46;;;;;;;6.70;2.57;;;;;;;18.63;61.54;101207.78;4901392;28;102243;-46
2022/10/25 09:13:23;;;;;;;3.47;1.70;;;;;;;18.64;61.80;101212.06;4904998;28;98560;-46
2022/10/25 09:16:13;;;;;;;3.13;1.73;;;;;;;18.63;61.49;101214.09;4905039;28;97503;-46
2022/10/25 09:18:56;;;;;;;6.13;2.40;;;;;;;18.66;61.36;101212.28;4896537;28;97185;-46
2022/10/25 09:21:27;;;;;;;3.03;2.10;;;;;;;18.71;61.55;101225.38;4900904;28;100287;-47
2022/10/25 09:24:08;;;;;;;3.60;1.43;;;;;;;18.74;61.29;101221.50;4903990;28;97346;-47
2022/10/25 09:26:37;;;;;;;3.13;1.70;;;;;;;18.76;61.32;101216.16;4899375;28;98194;-47
2022/10/25 09:29:21;;;;;;;3.87;1.90;;;;;;;18.79;61.33;101217.88;4902068;28;97406;-47
2022/10/25 09:31:51;;;;;;;4.93;1.80;;;;;;;18.83;61.43;101223.88;4899056;28;97555;-48
2022/10/25 09:34:20;;;;;;;4.77;1.60;;;;;;;18.85;61.27;101218.50;4901838;28;97233;-48
2022/10/25 09:36:48;;;;;;;5.30;1.93;;;;;;;18.87;61.09;101221.50;4904857;28;97283;-47
2022/10/25 09:39:36;;;;;;;2.80;1.30;;;;;;;18.88;60.89;101220.22;4900791;28;97847;-47
2022/10/25 09:42:03;;;;;;;5.50;1.70;;;;;;;18.92;61.10;101233.84;4903364;28;97635;-48
2022/10/25 09:44:37;;;;;;;4.50;1.80;;;;;;;18.97;60.71;101230.19;4902373;28;97335;-47
2022/10/25 09:47:30;;;;;;;6.43;1.50;;;;;;;19.04;60.60;101235.91;4904682;28;97196;-45
2022/10/25 09:50:14;;;;;;;5.37;1.50;;;;;;;19.09;60.55;101235.00;4898783;28;100665;-47
2022/10/25 09:52:53;;;;;;;2.50;1.93;;;;;;;19.10;60.20;101244.13;4904889;28;97018;-47
2022/10/25 09:55:18;;;;;;;1.40;1.30;;;;;;;19.08;60.54;101243.94;4904346;28;98496;-46
2022/10/25 09:57:45;;;;;;;7.87;1.90;;;;;;;19.08;60.52;101252.28;4902177;28;97165;-47
2022/10/25 10:00:14;;;;;;;2.80;1.27;;;;;;;19.11;60.61;101251.22;4901783;28;97827;-47
2022/10/25 10:02:40;;;;;;;6.20;1.70;;;;;;;19.17;60.72;101247.03;4902047;28;97145;-47
2022/10/25 10:05:14;;;;;;;7.17;1.63;;;;;;;19.25;60.12;101244.34;4901936;28;97153;-48
2022/10/25 10:07:40;;;;;;;2.33;1.40;;;;;;;19.33;60.48;101253.56;4900134;28;97250;-47
2022/10/25 10:10:12;;;;;;;4.27;1.60;;;;;;;19.39;60.23;101252.19;4899916;28;97256;-47
2022/10/25 10:12:56;;;;;;;4.23;1.47;;;;;;;19.46;59.55;101256.38;4903880;28;98068;-47
2022/10/25 10:15:37;;;;;;;3.10;1.60;;;;;;;19.47;59.21;101271.81;4905794;28;97074;-44
2022/10/25 10:18:22;;;;;;;5.20;1.50;;;;;;;19.46;59.18;101272.34;4901816;28;97103;-47
2022/10/25 10:21:02;;;;;;;2.67;1.27;;;;;;;19.48;59.64;101264.19;4903434;28;100491;-47
2022/10/25 10:23:50;;;;;;;5.00;1.57;;;;;;;19.48;59.86;101269.78;4905725;28;97243;-47
2022/10/25 10:26:30;;;;;;;4.00;1.50;;;;;;;19.46;59.43;101269.56;4899647;28;97463;-47
2022/10/25 10:29:07;;;;;;;3.20;1.40;;;;;;;19.40;59.04;101267.63;4909031;28;97105;-47
2022/10/25 10:31:41;;;;;;;3.60;1.10;;;;;;;19.33;59.28;101276.63;4904553;28;97853;-47
2022/10/25 10:34:29;;;;;;;4.17;1.33;;;;;;;19.27;58.74;101276.00;4903321;28;97340;-47
2022/10/25 10:37:13;;;;;;;2.83;1.67;;;;;;;19.27;58.99;101272.44;4905899;28;98043;-47
2022/10/25 10:39:48;;;;;;;3.30;1.50;;;;;;;19.26;59.15;101273.75;4905206;28;97594;-47
2022/10/25 10:42:17;;;;;;;3.87;1.37;;;;;;;19.23;59.57;101272.78;4906165;28;97731;-47
